Crumley Xing, Indiana
Current Conditions -  °F | °C
As of 7:53 AM on Sunday 23 Nov 2014 (Local Time) from KMIE Reporting Station
Broken Clouds Broken Clouds  
Wind Chill: 50°   Ceiling: 7500
Heat Index: 50°   Visibility: 10mi
Dew Point: 40°   Wind: 15mph
Humidity: 68%   Direction: 190°S
Pressure: 29.92"   Gusts: NA
Location:  40.3769°N, 85.2018°W
Report Text: KMIE 231253Z 19013KT 10SM BKN075 10/04 A2992 RMK AO2 SLP129 T01000044
Loading
Personal Weather Stations






























Interactive Weather Map New forecast layout! Learn more

10-Day Weather Forecast

Advertisements
Track Severe Weather on mobile